Time;durP1;ratioP1;P1;durP2;ratioP2;P2;SDS_P1;SDS_P2;PMS_P1;PMS_P2;Temp;Humidity;BMP_temperature;BMP_pressure;BME280_temperature;BME280_humidity;BME280_pressure;Samples;Min_cycle;Max_cycle;Signal;HPM_P1;HPM_P2
2024/04/18 00:01:16;;;;;;;4.15;0.80;;;7.90;99.90;;;;;;5380539;26;20506;-68
2024/04/18 00:03:43;;;;;;;1.23;0.63;;;7.90;99.90;;;;;;5391440;26;20169;-69
2024/04/18 00:06:11;;;;;;;3.08;0.85;;;7.90;99.90;;;;;;5393298;26;20397;-68
2024/04/18 00:08:38;;;;;;;2.25;0.82;;;7.90;99.90;;;;;;5365229;26;20064;-68
2024/04/18 00:11:05;;;;;;;2.15;0.80;;;8.00;99.90;;;;;;5392841;26;20303;-68
2024/04/18 00:13:32;;;;;;;6.72;1.00;;;8.00;99.90;;;;;;5383956;26;20004;-70
2024/04/18 00:15:59;;;;;;;2.75;0.88;;;8.00;99.90;;;;;;5386773;26;20001;-69
2024/04/18 00:18:26;;;;;;;2.40;0.80;;;7.90;99.90;;;;;;5397887;26;20003;-68
2024/04/18 00:20:53;;;;;;;2.10;0.93;;;7.80;99.90;;;;;;5379892;26;20014;-69
2024/04/18 00:23:21;;;;;;;6.43;1.67;;;7.80;99.90;;;;;;5402382;26;20004;-68
2024/04/18 00:25:48;;;;;;;3.97;0.95;;;7.80;99.90;;;;;;5395526;26;20074;-69
2024/04/18 00:28:14;;;;;;;2.03;0.75;;;7.80;99.90;;;;;;5377299;26;20483;-69
2024/04/18 00:30:42;;;;;;;4.55;0.82;;;7.60;99.90;;;;;;5381530;26;20070;-69
2024/04/18 00:33:09;;;;;;;2.10;0.88;;;7.60;99.90;;;;;;5403600;26;20368;-69
2024/04/18 00:35:38;;;;;;;5.20;1.58;;;7.70;99.90;;;;;;5375970;26;20691;-68
2024/04/18 00:38:04;;;;;;;1.45;0.70;;;7.70;99.90;;;;;;5374085;26;20084;-70
2024/04/18 00:40:31;;;;;;;2.05;1.00;;;7.60;99.90;;;;;;5384333;26;20364;-69
2024/04/18 00:42:59;;;;;;;3.38;0.80;;;7.70;99.90;;;;;;5391496;26;20000;-69
2024/04/18 00:45:26;;;;;;;4.30;0.90;;;7.60;99.90;;;;;;5394851;26;20030;-69
2024/04/18 00:47:53;;;;;;;3.58;0.93;;;7.60;99.90;;;;;;5386724;26;20365;-68
2024/04/18 00:50:20;;;;;;;2.92;1.45;;;7.50;99.90;;;;;;5395650;26;20015;-69
2024/04/18 00:52:47;;;;;;;3.38;0.90;;;7.50;99.90;;;;;;5400512;26;20000;-69
2024/04/18 00:55:14;;;;;;;5.22;0.65;;;7.50;99.90;;;;;;5401286;26;20003;-70
2024/04/18 00:57:41;;;;;;;3.80;0.75;;;7.50;99.90;;;;;;5400312;26;19999;-69
2024/04/18 01:00:09;;;;;;;4.45;0.98;;;7.50;99.90;;;;;;5380937;26;20018;-70
2024/04/18 01:02:36;;;;;;;2.72;0.80;;;7.50;99.90;;;;;;5387076;26;20048;-70
2024/04/18 01:05:03;;;;;;;4.88;0.80;;;7.50;99.90;;;;;;5383588;26;20061;-69
2024/04/18 01:07:30;;;;;;;4.05;1.10;;;7.60;99.90;;;;;;5379564;26;20012;-70
2024/04/18 01:09:57;;;;;;;6.57;1.95;;;7.60;99.90;;;;;;5375758;26;20483;-69
2024/04/18 01:12:24;;;;;;;3.88;0.77;;;7.60;99.90;;;;;;5385457;26;20004;-69
2024/04/18 01:14:51;;;;;;;8.00;1.52;;;7.50;99.90;;;;;;5397111;26;20008;-69
2024/04/18 01:17:18;;;;;;;7.03;1.10;;;7.50;99.90;;;;;;5399251;26;20008;-69
2024/04/18 01:19:45;;;;;;;6.93;1.00;;;7.50;99.90;;;;;;5404906;26;20027;-69
2024/04/18 01:22:12;;;;;;;5.80;1.02;;;7.60;99.90;;;;;;5399757;26;20003;-70
2024/04/18 01:24:39;;;;;;;3.67;0.93;;;7.50;99.90;;;;;;5401616;26;20085;-69
2024/04/18 01:27:06;;;;;;;2.45;1.02;;;7.50;99.90;;;;;;5401568;26;20473;-69
2024/04/18 01:29:33;;;;;;;4.85;1.00;;;7.50;99.90;;;;;;5376832;26;20004;-70
2024/04/18 01:32:00;;;;;;;3.83;1.02;;;7.60;99.90;;;;;;5396831;26;20057;-68
2024/04/18 01:34:27;;;;;;;5.80;0.93;;;7.60;99.90;;;;;;5380208;26;20506;-68
2024/04/18 01:36:54;;;;;;;4.72;0.80;;;7.60;99.90;;;;;;5390351;26;20007;-68
2024/04/18 01:39:21;;;;;;;3.08;0.80;;;7.60;99.90;;;;;;5396981;26;20000;-68
2024/04/18 01:41:48;;;;;;;4.13;0.60;;;7.60;99.90;;;;;;5384292;26;20008;-68
2024/04/18 01:44:15;;;;;;;2.30;0.70;;;7.50;99.90;;;;;;5400617;26;20004;-68
2024/04/18 01:46:42;;;;;;;3.53;1.00;;;7.50;99.90;;;;;;5393804;26;20467;-68
2024/04/18 01:49:09;;;;;;;6.95;1.30;;;7.50;99.90;;;;;;5384370;26;20015;-68
2024/04/18 01:51:38;;;;;;;4.55;0.85;;;7.40;99.90;;;;;;5382838;26;20000;-68
2024/04/18 01:54:05;;;;;;;5.38;1.13;;;7.50;99.90;;;;;;5390617;26;20367;-68
2024/04/18 01:56:32;;;;;;;4.90;0.95;;;7.40;99.90;;;;;;5382228;26;20007;-66
2024/04/18 01:59:04;;;;;;;5.70;1.25;;;7.30;99.90;;;;;;5397693;26;20000;-70
2024/04/18 02:01:31;;;;;;;3.75;1.05;;;7.30;99.90;;;;;;5378110;26;20084;-70
2024/04/18 02:03:58;;;;;;;4.07;1.20;;;7.20;99.90;;;;;;5398106;26;20015;-70
2024/04/18 02:06:25;;;;;;;3.55;1.15;;;7.20;99.90;;;;;;5395549;26;20011;-69
2024/04/18 02:08:52;;;;;;;10.02;1.10;;;7.20;99.90;;;;;;5385787;26;20010;-69
2024/04/18 02:11:19;;;;;;;4.63;1.00;;;7.10;99.90;;;;;;5380141;26;20077;-69
2024/04/18 02:13:46;;;;;;;3.90;1.00;;;7.10;99.90;;;;;;5389997;26;20268;-69
2024/04/18 02:16:13;;;;;;;7.35;1.35;;;7.00;99.90;;;;;;5397148;26;20080;-69
2024/04/18 02:18:40;;;;;;;6.68;1.20;;;7.00;99.90;;;;;;5394081;26;20076;-70
2024/04/18 02:21:07;;;;;;;6.05;1.35;;;7.00;99.90;;;;;;5387455;26;20011;-69
2024/04/18 02:23:34;;;;;;;2.08;0.80;;;6.90;99.90;;;;;;5382473;26;20077;-70
2024/04/18 02:26:01;;;;;;;9.15;1.17;;;6.90;99.90;;;;;;5379118;26;20107;-70
2024/04/18 02:28:29;;;;;;;5.20;1.05;;;6.90;99.90;;;;;;5390180;26;20009;-69
2024/04/18 02:30:56;;;;;;;3.38;1.02;;;6.80;99.90;;;;;;5372279;26;20426;-69
2024/04/18 02:33:23;;;;;;;3.47;0.93;;;6.80;99.90;;;;;;5384327;26;20072;-69
2024/04/18 02:35:50;;;;;;;5.45;1.27;;;6.80;99.90;;;;;;5386197;26;20008;-69
2024/04/18 02:38:17;;;;;;;5.97;1.10;;;6.80;99.90;;;;;;5385396;26;20471;-70
2024/04/18 02:40:43;;;;;;;5.53;0.90;;;6.70;99.90;;;;;;5393485;26;20019;-70
2024/04/18 02:43:10;;;;;;;1.52;0.65;;;6.70;99.90;;;;;;5388111;26;20012;-70
2024/04/18 02:45:37;;;;;;;7.88;1.45;;;6.70;99.90;;;;;;5395197;26;20455;-69
2024/04/18 02:48:04;;;;;;;5.80;1.15;;;6.60;99.90;;;;;;5378173;26;20027;-69
2024/04/18 02:50:31;;;;;;;6.68;0.90;;;6.60;99.90;;;;;;5393498;26;20003;-69
2024/04/18 02:52:58;;;;;;;4.25;1.00;;;6.60;99.90;;;;;;5391756;26;20463;-69
2024/04/18 02:55:25;;;;;;;4.28;1.17;;;6.60;99.90;;;;;;5387778;26;20003;-69
2024/04/18 02:57:52;;;;;;;5.60;1.88;;;6.60;99.90;;;;;;5397285;26;20004;-70
2024/04/18 03:00:19;;;;;;;2.75;1.10;;;6.50;99.90;;;;;;5380180;26;20019;-70
2024/04/18 03:02:46;;;;;;;8.57;1.00;;;6.50;99.90;;;;;;5387755;26;20007;-70
2024/04/18 03:05:17;;;;;;;4.55;1.15;;;6.50;99.90;;;;;;5380332;26;20004;-69
2024/04/18 03:07:43;;;;;;;6.85;0.82;;;6.50;99.90;;;;;;5380242;26;20008;-70
2024/04/18 03:10:10;;;;;;;3.83;0.70;;;6.50;99.90;;;;;;5400457;26;20070;-69
2024/04/18 03:12:37;;;;;;;3.25;0.82;;;6.50;99.90;;;;;;5399399;26;20246;-70
2024/04/18 03:15:05;;;;;;;8.68;1.10;;;6.40;99.90;;;;;;5382333;26;20016;-70
2024/04/18 03:17:31;;;;;;;7.65;1.50;;;6.40;99.90;;;;;;5375704;26;20004;-71
2024/04/18 03:19:59;;;;;;;3.63;1.17;;;6.50;99.90;;;;;;5391971;26;20019;-69
2024/04/18 03:22:26;;;;;;;4.53;0.98;;;6.40;99.90;;;;;;5375674;26;20018;-69
2024/04/18 03:24:53;;;;;;;5.82;1.30;;;6.30;99.90;;;;;;5377450;26;20023;-69
2024/04/18 03:27:20;;;;;;;7.82;0.93;;;6.40;99.90;;;;;;5387238;26;20336;-69
2024/04/18 03:29:47;;;;;;;4.63;0.77;;;6.40;99.90;;;;;;5377491;26;20037;-70
2024/04/18 03:32:14;;;;;;;3.65;0.90;;;6.30;99.90;;;;;;5389460;26;20464;-69
2024/04/18 03:34:41;;;;;;;7.57;1.35;;;6.30;99.90;;;;;;5375759;26;20023;-69
2024/04/18 03:37:08;;;;;;;5.07;0.77;;;6.30;99.90;;;;;;5382342;26;19999;-69
2024/04/18 03:39:35;;;;;;;3.10;0.60;;;6.30;99.90;;;;;;5390440;26;20015;-70
2024/04/18 03:42:02;;;;;;;10.35;1.30;;;6.30;99.90;;;;;;5379509;26;20004;-69
2024/04/18 03:44:30;;;;;;;5.53;0.98;;;6.30;99.90;;;;;;5394368;26;20014;-69
2024/04/18 03:46:57;;;;;;;5.03;1.10;;;6.30;99.90;;;;;;5386104;26;19996;-69
2024/04/18 03:49:25;;;;;;;9.18;0.80;;;6.20;99.90;;;;;;5393959;26;20478;-69
2024/04/18 03:51:52;;;;;;;4.32;0.80;;;6.20;99.90;;;;;;5383063;26;20015;-69
2024/04/18 03:54:20;;;;;;;5.47;1.10;;;6.20;99.90;;;;;;5379068;26;20001;-70
2024/04/18 03:56:47;;;;;;;4.55;0.88;;;6.20;99.90;;;;;;5391787;26;20010;-70
2024/04/18 03:59:14;;;;;;;2.58;1.02;;;6.10;99.90;;;;;;5392853;26;20080;-69
2024/04/18 04:01:41;;;;;;;3.88;1.00;;;6.10;99.90;;;;;;5381722;26;20545;-69
2024/04/18 04:04:08;;;;;;;2.00;0.57;;;6.10;99.90;;;;;;5405847;26;20486;-69
2024/04/18 04:06:35;;;;;;;4.78;0.95;;;6.00;99.90;;;;;;5386861;26;19999;-69
2024/04/18 04:09:02;;;;;;;4.47;1.02;;;6.00;99.90;;;;;;5396840;26;20014;-69
2024/04/18 04:11:29;;;;;;;4.63;0.80;;;6.00;99.90;;;;;;5393350;26;20000;-69
2024/04/18 04:13:56;;;;;;;8.57;2.63;;;6.00;99.90;;;;;;5375285;26;20019;-68
2024/04/18 04:16:26;;;;;;;2.53;1.27;;;5.90;99.90;;;;;;5377384;26;20047;-68
2024/04/18 04:18:55;;;;;;;5.72;1.73;;;5.90;99.90;;;;;;5390913;26;20080;-68
2024/04/18 04:21:22;;;;;;;2.03;0.80;;;5.90;99.90;;;;;;5401837;26;20004;-68
2024/04/18 04:23:50;;;;;;;8.65;0.88;;;5.90;99.90;;;;;;5387209;26;20004;-68
2024/04/18 04:26:17;;;;;;;3.67;1.00;;;5.80;99.90;;;;;;5390404;26;20087;-69
2024/04/18 04:28:44;;;;;;;6.03;0.98;;;5.80;99.90;;;;;;5402853;26;20004;-69
2024/04/18 04:31:11;;;;;;;3.70;0.82;;;5.70;99.90;;;;;;5396212;26;20003;-68
2024/04/18 04:33:37;;;;;;;7.70;0.90;;;5.70;99.90;;;;;;5396122;26;20000;-69
2024/04/18 04:36:05;;;;;;;4.07;0.73;;;5.70;99.90;;;;;;5400121;26;20408;-69
2024/04/18 04:38:32;;;;;;;3.40;1.05;;;5.70;99.90;;;;;;5392219;26;20033;-69
2024/04/18 04:40:58;;;;;;;4.05;0.57;;;5.70;99.90;;;;;;5402690;26;20022;-69
2024/04/18 04:43:25;;;;;;;8.00;1.08;;;5.80;99.90;;;;;;5381776;26;20001;-69
2024/04/18 04:45:55;;;;;;;3.60;1.00;;;5.70;99.90;;;;;;5388625;26;20000;-69
2024/04/18 04:48:22;;;;;;;2.22;0.80;;;5.70;99.90;;;;;;5395257;26;20000;-69
2024/04/18 04:51:03;;;;;;;3.67;0.95;;;5.70;99.90;;;;;;5389891;26;20450;-69
2024/04/18 04:53:30;;;;;;;10.82;1.27;;;5.70;99.90;;;;;;5399195;26;20085;-69
2024/04/18 04:55:57;;;;;;;1.70;0.50;;;5.60;99.90;;;;;;5398078;26;20008;-69
2024/04/18 04:58:24;;;;;;;5.63;1.00;;;5.70;99.90;;;;;;5386727;26;20072;-70
2024/04/18 05:00:53;;;;;;;2.92;1.00;;;5.70;99.90;;;;;;5388549;26;20467;-68
2024/04/18 05:03:21;;;;;;;5.72;1.02;;;5.60;99.90;;;;;;5388949;26;20014;-69
2024/04/18 05:05:48;;;;;;;6.00;1.02;;;5.70;99.90;;;;;;5385417;26;20012;-69
2024/04/18 05:08:15;;;;;;;6.30;1.10;;;5.70;99.90;;;;;;5389805;26;19997;-68
2024/04/18 05:10:43;;;;;;;4.47;1.42;;;5.70;99.90;;;;;;5386828;26;20483;-70
2024/04/18 05:13:14;;;;;;;2.90;0.95;;;5.70;99.90;;;;;;5402757;26;20843;-70
2024/04/18 05:15:41;;;;;;;2.75;0.90;;;5.60;99.90;;;;;;5382456;26;20016;-69
2024/04/18 05:18:11;;;;;;;4.93;0.90;;;5.70;99.90;;;;;;5386840;26;20011;-69
2024/04/18 05:20:38;;;;;;;5.82;2.72;;;5.70;99.90;;;;;;5400488;26;20012;-69
2024/04/18 05:23:06;;;;;;;7.47;1.00;;;5.70;99.90;;;;;;5404085;26;20016;-69
2024/04/18 05:25:34;;;;;;;10.18;2.97;;;5.70;99.90;;;;;;5376443;26;20015;-69
2024/04/18 05:28:10;;;;;;;6.28;1.40;;;5.70;99.90;;;;;;5388811;26;20365;-69
2024/04/18 05:33:23;;;;;;;2.85;1.08;;;5.70;99.90;;;;;;5402603;26;20463;-70
2024/04/18 05:35:51;;;;;;;2.38;0.95;;;5.70;99.90;;;;;;5390657;26;20016;-70
2024/04/18 05:38:18;;;;;;;4.55;1.90;;;5.70;99.90;;;;;;5387850;26;20399;-70
2024/04/18 05:40:45;;;;;;;2.17;0.90;;;5.70;99.90;;;;;;5396935;26;20011;-69
2024/04/18 05:43:13;;;;;;;4.88;1.48;;;5.80;99.90;;;;;;5378143;26;20007;-69
2024/04/18 05:45:40;;;;;;;4.35;1.20;;;5.80;99.90;;;;;;5398795;26;19999;-69
2024/04/18 05:48:07;;;;;;;9.13;1.20;;;5.80;99.90;;;;;;5390505;26;20370;-70
2024/04/18 05:50:34;;;;;;;1.75;0.75;;;5.80;99.90;;;;;;5392410;26;20039;-70
2024/04/18 05:53:05;;;;;;;6.95;1.30;;;5.80;99.90;;;;;;5396455;26;20483;-69
2024/04/18 05:55:32;;;;;;;2.53;0.82;;;5.90;99.90;;;;;;5391718;26;20004;-69
2024/04/18 05:57:59;;;;;;;10.55;2.53;;;5.90;99.90;;;;;;5405135;26;20004;-70
2024/04/18 06:00:26;;;;;;;6.60;1.50;;;6.20;99.90;;;;;;5389377;26;20356;-71
2024/04/18 06:02:54;;;;;;;7.18;1.58;;;6.00;99.90;;;;;;5384693;26;20052;-70
2024/04/18 06:05:21;;;;;;;5.35;1.48;;;6.00;99.90;;;;;;5379936;26;20378;-71
2024/04/18 06:07:48;;;;;;;3.60;1.17;;;6.00;99.90;;;;;;5388129;26;20007;-71
2024/04/18 06:10:15;;;;;;;5.78;1.95;;;6.10;99.90;;;;;;5402682;26;20004;-69
2024/04/18 06:12:42;;;;;;;5.40;1.40;;;6.10;99.90;;;;;;5388994;26;20022;-70
2024/04/18 06:15:09;;;;;;;12.52;2.30;;;6.10;99.90;;;;;;5390841;26;20027;-70
2024/04/18 06:17:36;;;;;;;8.40;2.25;;;6.00;99.90;;;;;;5398318;26;20016;-70
2024/04/18 06:20:04;;;;;;;12.30;2.10;;;6.10;99.90;;;;;;5400092;26;20004;-70
2024/04/18 06:22:31;;;;;;;10.55;1.73;;;6.20;99.90;;;;;;5401281;26;20019;-70
2024/04/18 06:24:58;;;;;;;4.15;1.40;;;6.20;99.90;;;;;;5377751;26;20055;-70
2024/04/18 06:27:25;;;;;;;7.40;2.40;;;6.20;99.90;;;;;;5400129;26;20003;-68
2024/04/18 06:29:52;;;;;;;8.77;1.65;;;6.30;99.90;;;;;;5388354;26;20036;-71
2024/04/18 06:32:20;;;;;;;6.53;2.50;;;6.40;99.90;;;;;;5389130;26;20399;-70
2024/04/18 06:34:47;;;;;;;10.32;1.83;;;6.50;99.90;;;;;;5396532;26;20038;-70
2024/04/18 06:37:14;;;;;;;7.53;2.33;;;6.60;99.90;;;;;;5390351;26;20024;-71
2024/04/18 06:39:41;;;;;;;6.25;1.95;;;6.60;99.90;;;;;;5397214;26;20016;-71
2024/04/18 06:42:09;;;;;;;6.15;1.75;;;6.60;99.90;;;;;;5395436;26;20007;-70
2024/04/18 06:44:36;;;;;;;9.55;1.92;;;6.60;99.90;;;;;;5400721;26;20016;-70
2024/04/18 06:47:04;;;;;;;4.93;1.73;;;6.70;99.90;;;;;;5397181;26;20208;-71
2024/04/18 06:49:31;;;;;;;7.57;2.20;;;6.70;99.90;;;;;;5379701;26;20384;-71
2024/04/18 06:51:59;;;;;;;9.95;1.48;;;6.80;99.90;;;;;;5395390;26;20019;-69
2024/04/18 06:54:26;;;;;;;5.18;1.58;;;6.90;99.90;;;;;;5384835;26;20004;-70
2024/04/18 06:56:53;;;;;;;6.50;1.55;;;7.00;99.90;;;;;;5384095;26;20015;-69
2024/04/18 06:59:20;;;;;;;8.73;1.70;;;7.00;99.90;;;;;;5383609;26;20000;-69
2024/04/18 07:01:47;;;;;;;5.97;1.60;;;7.20;99.90;;;;;;5381609;26;20032;-69
2024/04/18 07:04:14;;;;;;;7.05;1.73;;;7.20;99.90;;;;;;5400061;26;20008;-71
2024/04/18 07:06:42;;;;;;;9.90;1.90;;;7.20;99.90;;;;;;5390789;26;20004;-70
2024/04/18 07:09:09;;;;;;;5.93;1.75;;;7.20;99.90;;;;;;5389812;26;20015;-70
2024/04/18 07:11:36;;;;;;;4.47;1.50;;;7.30;99.90;;;;;;5388892;26;20031;-70
2024/04/18 07:14:03;;;;;;;5.07;1.52;;;7.30;99.90;;;;;;5400485;26;20062;-71
2024/04/18 07:16:30;;;;;;;13.63;2.75;;;7.40;99.90;;;;;;5395478;26;20052;-68
2024/04/18 07:18:57;;;;;;;8.02;2.03;;;7.40;99.90;;;;;;5392007;26;20004;-72
2024/04/18 07:21:24;;;;;;;7.35;1.83;;;7.50;99.90;;;;;;5401851;26;20016;-69
2024/04/18 07:23:51;;;;;;;6.93;1.75;;;7.50;99.90;;;;;;5399357;26;20535;-70
2024/04/18 07:26:18;;;;;;;7.57;1.75;;;7.50;99.90;;;;;;5403410;26;20467;-70
2024/04/18 07:28:45;;;;;;;5.93;2.22;;;7.60;99.90;;;;;;5388815;26;20000;-69
2024/04/18 07:31:12;;;;;;;5.78;1.55;;;7.70;99.90;;;;;;5395406;26;20004;-70
2024/04/18 07:33:39;;;;;;;8.25;1.77;;;7.70;99.90;;;;;;5397492;26;20079;-69
2024/04/18 07:36:06;;;;;;;5.63;1.10;;;7.70;99.90;;;;;;5390805;26;20012;-69
2024/04/18 07:38:33;;;;;;;6.20;1.63;;;7.80;99.90;;;;;;5387959;26;20015;-69
2024/04/18 07:41:00;;;;;;;8.82;2.08;;;7.90;99.90;;;;;;5383442;26;20023;-71
2024/04/18 07:43:27;;;;;;;7.05;1.98;;;8.00;99.90;;;;;;5380629;26;20379;-70
2024/04/18 07:45:54;;;;;;;5.25;1.35;;;8.00;99.90;;;;;;5404904;26;20076;-71
2024/04/18 07:48:21;;;;;;;6.05;1.40;;;8.20;99.90;;;;;;5396129;26;20467;-70
2024/04/18 07:50:49;;;;;;;3.72;1.35;;;8.20;99.90;;;;;;5393593;26;20142;-70
2024/04/18 07:53:15;;;;;;;4.78;1.65;;;8.20;99.90;;;;;;5378484;26;20000;-70
2024/04/18 07:55:42;;;;;;;6.93;1.80;;;8.30;99.90;;;;;;5390245;26;20312;-69
2024/04/18 07:58:09;;;;;;;8.98;1.98;;;8.30;99.90;;;;;;5394415;26;20372;-69
2024/04/18 08:00:37;;;;;;;15.73;1.83;;;8.40;99.90;;;;;;5396700;26;20011;-70
2024/04/18 08:03:07;;;;;;;5.50;1.27;;;8.50;99.90;;;;;;5376828;26;19996;-70
2024/04/18 08:05:37;;;;;;;7.22;1.20;;;8.50;99.90;;;;;;5384345;26;20004;-70
2024/04/18 08:08:07;;;;;;;18.90;4.70;;;8.70;99.90;;;;;;5387057;26;20019;-72
2024/04/18 08:10:39;;;;;;;9.93;1.63;;;8.70;99.90;;;;;;5376904;26;20419;-70
2024/04/18 08:13:26;;;;;;;8.20;1.83;;;8.80;99.90;;;;;;5396417;26;20008;-70
2024/04/18 08:16:01;;;;;;;6.18;1.83;;;8.80;99.90;;;;;;5378210;26;20529;-70
2024/04/18 08:18:28;;;;;;;8.05;2.03;;;8.90;99.90;;;;;;5397733;26;20003;-70
2024/04/18 08:20:58;;;;;;;9.10;2.03;;;8.90;99.90;;;;;;5388830;26;20446;-70
2024/04/18 08:23:26;;;;;;;9.05;1.70;;;9.00;99.90;;;;;;5408813;26;20035;-70
2024/04/18 08:25:53;;;;;;;8.80;2.45;;;9.10;99.90;;;;;;5391061;26;20327;-71
2024/04/18 08:28:20;;;;;;;20.27;2.03;;;9.20;99.90;;;;;;5393748;26;20063;-68
2024/04/18 08:30:47;;;;;;;11.10;2.65;;;9.30;99.90;;;;;;5395438;26;20019;-68
2024/04/18 08:33:14;;;;;;;9.55;3.10;;;9.50;99.90;;;;;;5402329;26;20003;-69
2024/04/18 08:35:43;;;;;;;5.97;1.83;;;9.60;99.90;;;;;;5386000;26;20012;-68
2024/04/18 08:38:12;;;;;;;12.30;1.00;;;9.60;99.90;;;;;;5398706;26;20003;-69
2024/04/18 08:40:41;;;;;;;10.00;1.67;;;9.60;99.90;;;;;;5392222;26;20028;-69
2024/04/18 08:43:08;;;;;;;10.88;1.42;;;9.50;99.90;;;;;;5395148;26;20376;-68
2024/04/18 08:45:36;;;;;;;11.95;1.60;;;9.50;99.90;;;;;;5399252;26;20090;-69
2024/04/18 08:48:04;;;;;;;6.22;1.45;;;9.60;99.90;;;;;;5383305;26;20012;-69
2024/04/18 08:50:32;;;;;;;5.80;1.15;;;9.60;99.90;;;;;;5402893;26;20004;-70
2024/04/18 08:52:59;;;;;;;9.85;1.67;;;9.60;99.90;;;;;;5381046;26;20054;-71
2024/04/18 08:55:26;;;;;;;5.28;1.35;;;9.60;99.90;;;;;;5378013;26;20000;-70
2024/04/18 08:57:58;;;;;;;6.03;1.23;;;9.60;99.90;;;;;;5392499;26;20031;-70
2024/04/18 09:00:25;;;;;;;6.30;1.77;;;9.60;99.90;;;;;;5373654;26;20004;-70
2024/04/18 09:02:52;;;;;;;5.57;1.08;;;9.60;99.90;;;;;;5389832;26;20021;-69
2024/04/18 09:05:19;;;;;;;5.78;1.13;;;9.60;99.90;;;;;;5387277;26;20083;-69
2024/04/18 09:07:46;;;;;;;6.10;1.35;;;9.60;99.90;;;;;;5399081;26;20012;-69
2024/04/18 09:10:15;;;;;;;7.60;1.23;;;9.60;99.90;;;;;;5380015;26;20004;-69
2024/04/18 09:12:43;;;;;;;9.18;1.45;;;9.50;99.90;;;;;;5382940;26;20478;-69
2024/04/18 09:15:10;;;;;;;8.85;1.75;;;9.70;99.90;;;;;;5398346;26;20005;-69
2024/04/18 09:17:37;;;;;;;4.03;1.10;;;9.90;99.90;;;;;;5389518;26;20010;-69
2024/04/18 09:20:04;;;;;;;6.32;1.88;;;10.10;99.90;;;;;;5385382;26;20015;-68
2024/04/18 09:22:32;;;;;;;7.38;1.67;;;10.30;99.90;;;;;;5393873;26;20081;-69
2024/04/18 09:24:59;;;;;;;6.57;1.30;;;10.50;99.90;;;;;;5398576;26;20569;-69
2024/04/18 09:27:26;;;;;;;9.15;1.58;;;10.70;99.90;;;;;;5385013;26;20028;-69
2024/04/18 09:29:53;;;;;;;5.55;1.20;;;10.70;99.90;;;;;;5405465;26;20106;-68
2024/04/18 09:32:21;;;;;;;3.15;1.20;;;10.90;99.90;;;;;;5389876;26;20047;-69
2024/04/18 09:34:48;;;;;;;4.47;1.35;;;11.00;99.90;;;;;;5382485;26;20008;-69
2024/04/18 09:37:15;;;;;;;5.10;0.90;;;11.30;99.90;;;;;;5387950;26;20044;-69
2024/04/18 09:39:43;;;;;;;3.53;1.27;;;11.60;99.90;;;;;;5398939;26;20019;-68
2024/04/18 09:42:27;;;;;;;48.95;4.53;;;11.60;99.90;;;;;;5392718;26;20006;-69
2024/04/18 09:44:54;;;;;;;4.40;0.95;;;11.40;99.90;;;;;;5374191;26;20410;-69
2024/04/18 09:47:24;;;;;;;5.97;1.58;;;10.90;99.90;;;;;;5397122;26;20004;-70
2024/04/18 09:49:52;;;;;;;5.45;1.33;;;10.70;99.90;;;;;;5394708;26;20000;-70
2024/04/18 09:52:20;;;;;;;5.03;1.38;;;10.60;99.90;;;;;;5398515;26;20076;-70
2024/04/18 09:54:47;;;;;;;4.03;1.25;;;10.50;99.90;;;;;;5389396;26;20018;-70
2024/04/18 09:57:14;;;;;;;4.88;0.90;;;10.70;99.90;;;;;;5371714;26;20011;-70
2024/04/18 09:59:41;;;;;;;8.90;1.08;;;10.80;99.90;;;;;;5374571;26;20015;-69
2024/04/18 10:02:11;;;;;;;4.25;0.98;;;10.70;99.90;;;;;;5366568;26;20004;-69
2024/04/18 10:04:38;;;;;;;7.90;1.05;;;10.60;99.90;;;;;;5397523;26;20004;-67
2024/04/18 10:07:05;;;;;;;4.43;1.08;;;10.60;99.90;;;;;;5349672;26;20357;-67
2024/04/18 10:09:32;;;;;;;3.55;0.98;;;11.20;99.90;;;;;;5392204;26;20007;-70
2024/04/18 10:11:59;;;;;;;7.13;2.58;;;11.90;99.90;;;;;;5368522;26;20018;-66
2024/04/18 10:14:26;;;;;;;10.48;1.52;;;11.90;99.90;;;;;;5372122;26;20007;-67
2024/04/18 10:16:53;;;;;;;5.47;1.05;;;11.90;99.90;;;;;;5393820;26;20003;-68
2024/04/18 10:19:21;;;;;;;5.40;1.27;;;12.10;99.90;;;;;;5392484;26;20143;-67
2024/04/18 10:21:58;;;;;;;11.13;1.83;;;12.30;99.90;;;;;;5383932;26;20019;-67
2024/04/18 10:24:34;;;;;;;6.75;1.15;;;12.30;99.90;;;;;;5389920;26;20097;-67
2024/04/18 10:27:06;;;;;;;3.65;1.15;;;12.30;99.90;;;;;;5406187;26;20036;-69
2024/04/18 10:29:34;;;;;;;8.27;1.08;;;12.30;99.90;;;;;;5398699;26;20003;-69
2024/04/18 10:32:03;;;;;;;5.15;1.00;;;12.20;99.90;;;;;;5394046;26;19995;-69
2024/04/18 10:34:30;;;;;;;5.45;1.20;;;11.80;99.90;;;;;;5403567;26;20027;-69
2024/04/18 10:36:57;;;;;;;6.15;1.08;;;11.30;99.90;;;;;;5381094;26;20001;-69
2024/04/18 10:39:37;;;;;;;6.90;1.10;;;11.20;99.90;;;;;;5359668;26;20058;-68
2024/04/18 10:42:08;;;;;;;5.57;1.10;;;11.10;99.90;;;;;;5386786;26;20004;-68
2024/04/18 10:44:36;;;;;;;5.72;1.08;;;11.10;99.90;;;;;;5394014;26;20011;-69
2024/04/18 10:47:04;;;;;;;4.68;1.42;;;11.20;99.90;;;;;;5378641;26;20019;-69
2024/04/18 10:49:32;;;;;;;3.30;0.75;;;11.40;99.90;;;;;;5393463;26;20014;-69
2024/04/18 10:51:59;;;;;;;3.00;0.80;;;11.60;99.90;;;;;;5387270;26;20004;-68
2024/04/18 10:54:29;;;;;;;3.47;0.80;;;11.70;99.90;;;;;;5391580;26;20535;-69
2024/04/18 10:56:56;;;;;;;6.68;1.25;;;11.70;99.90;;;;;;5407067;26;20209;-68
2024/04/18 10:59:23;;;;;;;6.32;1.10;;;11.80;99.90;;;;;;5387829;26;20003;-67
2024/04/18 11:01:50;;;;;;;10.05;1.80;;;11.80;99.90;;;;;;5388144;26;20342;-69
2024/04/18 11:04:17;;;;;;;5.78;1.27;;;11.60;99.90;;;;;;5394254;26;20012;-68
2024/04/18 11:06:46;;;;;;;10.07;1.13;;;11.40;99.90;;;;;;5394109;26;20024;-70
2024/04/18 11:09:16;;;;;;;6.47;1.10;;;11.40;99.90;;;;;;5425537;26;20020;-69
2024/04/18 11:11:43;;;;;;;6.90;1.27;;;11.50;99.90;;;;;;5400927;26;20003;-68
2024/04/18 11:14:10;;;;;;;5.78;2.20;;;11.40;99.90;;;;;;5383195;26;20000;-68
2024/04/18 11:16:39;;;;;;;2.38;1.10;;;11.50;99.90;;;;;;5396720;26;20286;-69
2024/04/18 11:19:06;;;;;;;5.97;1.33;;;11.60;99.90;;;;;;5378728;26;20067;-68
2024/04/18 11:21:33;;;;;;;6.63;0.90;;;11.60;99.90;;;;;;5393528;26;20000;-67
2024/04/18 11:24:00;;;;;;;7.28;1.23;;;11.80;99.90;;;;;;5395971;26;20032;-68
2024/04/18 11:26:27;;;;;;;6.75;1.83;;;12.00;99.90;;;;;;5380095;26;20015;-68
2024/04/18 11:28:57;;;;;;;6.30;1.10;;;12.10;99.90;;;;;;5404153;26;20064;-68
2024/04/18 11:31:24;;;;;;;6.72;1.10;;;12.20;99.90;;;;;;5393478;26;20043;-68
2024/04/18 11:33:52;;;;;;;5.75;1.27;;;12.30;99.90;;;;;;5383089;26;20103;-69
2024/04/18 11:36:19;;;;;;;5.80;1.10;;;12.30;99.90;;;;;;5397413;26;20459;-68
2024/04/18 11:38:47;;;;;;;12.32;1.77;;;12.40;99.90;;;;;;5383198;26;20008;-68
2024/04/18 11:41:13;;;;;;;4.18;0.80;;;12.50;99.90;;;;;;5391515;26;20015;-68
2024/04/18 11:43:41;;;;;;;7.65;1.02;;;12.50;99.40;;;;;;5396250;26;20004;-68
2024/04/18 11:46:08;;;;;;;6.70;1.10;;;12.50;99.90;;;;;;5392677;26;20035;-67
2024/04/18 11:48:36;;;;;;;5.65;0.80;;;12.60;99.90;;;;;;5380944;26;20115;-69
2024/04/18 11:51:03;;;;;;;3.47;0.88;;;12.50;98.80;;;;;;5400581;26;20020;-68
2024/04/18 11:53:31;;;;;;;6.57;1.10;;;12.50;99.40;;;;;;5394851;26;20004;-67
2024/04/18 11:55:58;;;;;;;5.13;1.02;;;12.60;98.60;;;;;;5397510;26;20068;-68
2024/04/18 11:58:28;;;;;;;8.65;1.10;;;12.50;99.90;;;;;;5386416;26;20498;-67
2024/04/18 12:00:55;;;;;;;4.05;0.70;;;12.70;99.40;;;;;;5375258;26;20407;-68
2024/04/18 12:03:25;;;;;;;6.05;1.58;;;12.70;98.10;;;;;;5382364;26;20016;-68
2024/04/18 12:05:53;;;;;;;6.20;1.00;;;12.80;98.10;;;;;;5388872;26;20427;-69
2024/04/18 12:08:19;;;;;;;10.30;1.15;;;12.90;99.10;;;;;;5392870;26;20077;-67
2024/04/18 12:10:47;;;;;;;11.27;1.35;;;13.10;99.20;;;;;;5402039;26;19999;-69
2024/04/18 12:13:13;;;;;;;8.60;1.20;;;13.20;98.20;;;;;;5367278;26;20019;-68
2024/04/18 12:15:40;;;;;;;5.32;0.93;;;13.20;97.00;;;;;;5382082;26;19999;-69
2024/04/18 12:18:07;;;;;;;6.47;1.17;;;13.30;98.40;;;;;;5380872;26;20458;-69
2024/04/18 12:20:34;;;;;;;5.53;1.15;;;13.20;98.10;;;;;;5399272;26;20010;-68
2024/04/18 12:23:01;;;;;;;11.00;1.15;;;13.10;96.50;;;;;;5400083;26;19999;-69
2024/04/18 12:25:28;;;;;;;2.58;0.77;;;13.30;97.50;;;;;;5392988;26;20012;-68
2024/04/18 12:27:55;;;;;;;4.68;1.30;;;13.30;96.20;;;;;;5398000;26;20015;-69
2024/04/18 12:30:22;;;;;;;11.88;1.88;;;13.30;97.80;;;;;;5392633;26;20015;-69
2024/04/18 12:32:50;;;;;;;5.40;1.00;;;13.30;96.70;;;;;;5393513;26;20530;-68
2024/04/18 12:35:17;;;;;;;2.45;0.80;;;13.20;95.20;;;;;;5380420;26;20441;-69
2024/04/18 12:37:44;;;;;;;4.78;0.95;;;13.20;97.70;;;;;;5378558;26;20004;-68
2024/04/18 12:40:12;;;;;;;4.25;1.02;;;13.20;96.20;;;;;;5400590;26;20338;-68
2024/04/18 12:42:39;;;;;;;6.63;1.10;;;13.30;95.60;;;;;;5396703;26;20011;-68
2024/04/18 12:45:06;;;;;;;5.45;1.20;;;13.60;97.80;;;;;;5398920;26;20007;-68
2024/04/18 12:47:33;;;;;;;4.93;1.55;;;13.80;96.60;;;;;;5379108;26;19996;-68
2024/04/18 12:50:00;;;;;;;11.98;1.30;;;13.80;97.00;;;;;;5393498;26;20402;-68
2024/04/18 12:52:28;;;;;;;8.90;1.17;;;13.90;95.70;;;;;;5387617;26;20012;-68
2024/04/18 12:54:54;;;;;;;6.95;1.15;;;13.80;96.60;;;;;;5388589;26;20004;-68
2024/04/18 12:57:22;;;;;;;7.20;1.20;;;13.90;96.10;;;;;;5387042;26;20059;-68